sensor_id;sensor_type;location;lat;lon;timestamp;P1;durP1;ratioP1;P2;durP2;ratioP2
28714;SDS011;15886;49.170;14.572;2024-03-22T00:02:17;20.58;;;10.18;;
28714;SDS011;15886;49.170;14.572;2024-03-22T00:04:44;20.58;;;10.32;;
28714;SDS011;15886;49.170;14.572;2024-03-22T00:07:11;20.38;;;11.10;;
28714;SDS011;15886;49.170;14.572;2024-03-22T00:09:39;23.90;;;12.02;;
28714;SDS011;15886;49.170;14.572;2024-03-22T00:12:06;20.83;;;11.45;;
28714;SDS011;15886;49.170;14.572;2024-03-22T00:14:34;20.33;;;10.52;;
28714;SDS011;15886;49.170;14.572;2024-03-22T00:17:01;20.20;;;11.20;;
28714;SDS011;15886;49.170;14.572;2024-03-22T00:19:29;18.42;;;11.18;;
28714;SDS011;15886;49.170;14.572;2024-03-22T00:21:56;18.67;;;11.15;;
28714;SDS011;15886;49.170;14.572;2024-03-22T00:24:23;25.58;;;12.82;;
28714;SDS011;15886;49.170;14.572;2024-03-22T00:26:50;23.75;;;11.55;;
28714;SDS011;15886;49.170;14.572;2024-03-22T00:29:17;22.58;;;12.57;;
28714;SDS011;15886;49.170;14.572;2024-03-22T00:31:44;24.10;;;12.10;;
28714;SDS011;15886;49.170;14.572;2024-03-22T00:34:11;23.92;;;12.77;;
28714;SDS011;15886;49.170;14.572;2024-03-22T00:36:40;24.95;;;12.50;;
28714;SDS011;15886;49.170;14.572;2024-03-22T00:39:07;21.70;;;12.18;;
28714;SDS011;15886;49.170;14.572;2024-03-22T00:41:34;22.85;;;13.07;;
28714;SDS011;15886;49.170;14.572;2024-03-22T00:44:01;24.15;;;14.20;;
28714;SDS011;15886;49.170;14.572;2024-03-22T00:46:29;29.58;;;14.43;;
28714;SDS011;15886;49.170;14.572;2024-03-22T00:48:56;24.33;;;14.07;;
28714;SDS011;15886;49.170;14.572;2024-03-22T00:51:27;26.17;;;14.10;;
28714;SDS011;15886;49.170;14.572;2024-03-22T00:53:55;30.65;;;13.48;;
28714;SDS011;15886;49.170;14.572;2024-03-22T00:56:22;24.60;;;13.48;;
28714;SDS011;15886;49.170;14.572;2024-03-22T00:58:49;32.17;;;14.77;;
28714;SDS011;15886;49.170;14.572;2024-03-22T01:01:16;27.40;;;13.93;;
28714;SDS011;15886;49.170;14.572;2024-03-22T01:03:43;26.75;;;14.32;;
28714;SDS011;15886;49.170;14.572;2024-03-22T01:06:10;27.08;;;14.80;;
28714;SDS011;15886;49.170;14.572;2024-03-22T01:08:37;28.65;;;13.27;;
28714;SDS011;15886;49.170;14.572;2024-03-22T01:11:04;31.20;;;15.02;;
28714;SDS011;15886;49.170;14.572;2024-03-22T01:13:31;27.88;;;13.70;;
28714;SDS011;15886;49.170;14.572;2024-03-22T01:15:58;24.88;;;13.50;;
28714;SDS011;15886;49.170;14.572;2024-03-22T01:18:25;29.05;;;14.32;;
28714;SDS011;15886;49.170;14.572;2024-03-22T01:20:52;23.90;;;13.88;;
28714;SDS011;15886;49.170;14.572;2024-03-22T01:23:19;29.15;;;14.40;;
28714;SDS011;15886;49.170;14.572;2024-03-22T01:25:46;22.15;;;12.15;;
28714;SDS011;15886;49.170;14.572;2024-03-22T01:28:14;22.85;;;12.43;;
28714;SDS011;15886;49.170;14.572;2024-03-22T01:30:42;23.77;;;12.73;;
28714;SDS011;15886;49.170;14.572;2024-03-22T01:33:12;24.35;;;13.85;;
28714;SDS011;15886;49.170;14.572;2024-03-22T01:35:39;30.50;;;15.75;;
28714;SDS011;15886;49.170;14.572;2024-03-22T01:38:06;26.38;;;12.93;;
28714;SDS011;15886;49.170;14.572;2024-03-22T01:40:34;29.75;;;14.57;;
28714;SDS011;15886;49.170;14.572;2024-03-22T01:43:01;29.85;;;14.45;;
28714;SDS011;15886;49.170;14.572;2024-03-22T01:45:31;30.52;;;15.60;;
28714;SDS011;15886;49.170;14.572;2024-03-22T01:47:59;24.95;;;14.50;;
28714;SDS011;15886;49.170;14.572;2024-03-22T01:50:27;26.02;;;14.48;;
28714;SDS011;15886;49.170;14.572;2024-03-22T01:52:55;29.15;;;15.60;;
28714;SDS011;15886;49.170;14.572;2024-03-22T01:55:22;29.95;;;15.48;;
28714;SDS011;15886;49.170;14.572;2024-03-22T01:57:49;28.20;;;14.68;;
28714;SDS011;15886;49.170;14.572;2024-03-22T02:00:21;32.33;;;14.73;;
28714;SDS011;15886;49.170;14.572;2024-03-22T02:02:48;25.63;;;13.68;;
28714;SDS011;15886;49.170;14.572;2024-03-22T02:05:16;28.75;;;14.68;;
28714;SDS011;15886;49.170;14.572;2024-03-22T02:07:45;28.02;;;14.75;;
28714;SDS011;15886;49.170;14.572;2024-03-22T02:10:14;27.95;;;13.85;;
28714;SDS011;15886;49.170;14.572;2024-03-22T02:12:42;27.77;;;14.75;;
28714;SDS011;15886;49.170;14.572;2024-03-22T02:15:09;25.52;;;14.25;;
28714;SDS011;15886;49.170;14.572;2024-03-22T02:17:36;31.75;;;14.85;;
28714;SDS011;15886;49.170;14.572;2024-03-22T02:20:03;24.63;;;13.25;;
28714;SDS011;15886;49.170;14.572;2024-03-22T02:22:31;24.70;;;13.05;;
28714;SDS011;15886;49.170;14.572;2024-03-22T02:24:58;25.80;;;14.43;;
28714;SDS011;15886;49.170;14.572;2024-03-22T02:27:25;29.50;;;15.05;;
28714;SDS011;15886;49.170;14.572;2024-03-22T02:29:52;30.83;;;15.77;;
28714;SDS011;15886;49.170;14.572;2024-03-22T02:32:19;20.48;;;11.88;;
28714;SDS011;15886;49.170;14.572;2024-03-22T02:34:47;24.63;;;12.50;;
28714;SDS011;15886;49.170;14.572;2024-03-22T02:37:14;29.85;;;13.23;;
28714;SDS011;15886;49.170;14.572;2024-03-22T02:39:41;25.10;;;12.90;;
28714;SDS011;15886;49.170;14.572;2024-03-22T02:42:08;29.55;;;14.57;;
28714;SDS011;15886;49.170;14.572;2024-03-22T02:44:35;24.42;;;12.90;;
28714;SDS011;15886;49.170;14.572;2024-03-22T02:47:09;22.35;;;12.48;;
28714;SDS011;15886;49.170;14.572;2024-03-22T02:49:38;23.33;;;12.93;;
28714;SDS011;15886;49.170;14.572;2024-03-22T02:52:05;23.75;;;12.05;;
28714;SDS011;15886;49.170;14.572;2024-03-22T02:54:32;24.90;;;13.55;;
28714;SDS011;15886;49.170;14.572;2024-03-22T02:56:59;23.38;;;12.18;;
28714;SDS011;15886;49.170;14.572;2024-03-22T02:59:28;23.73;;;12.65;;
28714;SDS011;15886;49.170;14.572;2024-03-22T03:01:55;23.80;;;12.02;;
28714;SDS011;15886;49.170;14.572;2024-03-22T03:04:22;29.17;;;11.98;;
28714;SDS011;15886;49.170;14.572;2024-03-22T03:06:50;24.27;;;12.88;;
28714;SDS011;15886;49.170;14.572;2024-03-22T03:09:17;24.52;;;13.45;;
28714;SDS011;15886;49.170;14.572;2024-03-22T03:11:44;25.85;;;13.38;;
28714;SDS011;15886;49.170;14.572;2024-03-22T03:14:12;22.83;;;13.05;;
28714;SDS011;15886;49.170;14.572;2024-03-22T03:16:39;23.42;;;12.55;;
28714;SDS011;15886;49.170;14.572;2024-03-22T03:19:06;30.33;;;13.43;;
28714;SDS011;15886;49.170;14.572;2024-03-22T03:21:33;25.15;;;12.77;;
28714;SDS011;15886;49.170;14.572;2024-03-22T03:24:00;23.85;;;12.15;;
28714;SDS011;15886;49.170;14.572;2024-03-22T03:26:27;23.13;;;12.55;;
28714;SDS011;15886;49.170;14.572;2024-03-22T03:28:54;24.50;;;12.90;;
28714;SDS011;15886;49.170;14.572;2024-03-22T03:31:21;31.48;;;12.68;;
28714;SDS011;15886;49.170;14.572;2024-03-22T03:33:49;23.83;;;13.35;;
28714;SDS011;15886;49.170;14.572;2024-03-22T03:36:16;25.20;;;13.23;;
28714;SDS011;15886;49.170;14.572;2024-03-22T03:38:43;22.83;;;13.70;;
28714;SDS011;15886;49.170;14.572;2024-03-22T03:41:10;19.60;;;10.73;;
28714;SDS011;15886;49.170;14.572;2024-03-22T03:43:40;24.90;;;13.02;;
28714;SDS011;15886;49.170;14.572;2024-03-22T03:46:06;28.35;;;13.68;;
28714;SDS011;15886;49.170;14.572;2024-03-22T03:48:34;27.95;;;13.68;;
28714;SDS011;15886;49.170;14.572;2024-03-22T03:51:01;25.65;;;11.82;;
28714;SDS011;15886;49.170;14.572;2024-03-22T03:53:29;23.98;;;14.00;;
28714;SDS011;15886;49.170;14.572;2024-03-22T03:55:56;31.15;;;13.55;;
28714;SDS011;15886;49.170;14.572;2024-03-22T03:58:24;21.33;;;11.75;;
28714;SDS011;15886;49.170;14.572;2024-03-22T04:00:51;29.35;;;13.20;;
28714;SDS011;15886;49.170;14.572;2024-03-22T04:03:18;21.27;;;11.65;;
28714;SDS011;15886;49.170;14.572;2024-03-22T04:05:45;25.35;;;12.95;;
28714;SDS011;15886;49.170;14.572;2024-03-22T04:08:12;31.17;;;13.40;;
28714;SDS011;15886;49.170;14.572;2024-03-22T04:10:39;21.65;;;11.60;;
28714;SDS011;15886;49.170;14.572;2024-03-22T04:13:07;29.20;;;12.68;;
28714;SDS011;15886;49.170;14.572;2024-03-22T04:15:35;25.48;;;13.43;;
28714;SDS011;15886;49.170;14.572;2024-03-22T04:18:04;29.00;;;12.55;;
28714;SDS011;15886;49.170;14.572;2024-03-22T04:20:31;24.38;;;13.10;;
28714;SDS011;15886;49.170;14.572;2024-03-22T04:22:58;24.00;;;12.10;;
28714;SDS011;15886;49.170;14.572;2024-03-22T04:25:25;22.52;;;12.50;;
28714;SDS011;15886;49.170;14.572;2024-03-22T04:27:52;25.00;;;12.07;;
28714;SDS011;15886;49.170;14.572;2024-03-22T04:30:19;26.88;;;13.70;;
28714;SDS011;15886;49.170;14.572;2024-03-22T04:32:46;31.30;;;13.07;;
28714;SDS011;15886;49.170;14.572;2024-03-22T04:35:13;29.33;;;11.98;;
28714;SDS011;15886;49.170;14.572;2024-03-22T04:37:40;22.60;;;12.80;;
28714;SDS011;15886;49.170;14.572;2024-03-22T04:40:08;23.13;;;13.55;;
28714;SDS011;15886;49.170;14.572;2024-03-22T04:42:38;27.33;;;12.20;;
28714;SDS011;15886;49.170;14.572;2024-03-22T04:45:05;31.80;;;12.50;;
28714;SDS011;15886;49.170;14.572;2024-03-22T04:47:32;24.40;;;13.10;;
28714;SDS011;15886;49.170;14.572;2024-03-22T04:49:59;23.55;;;11.27;;
28714;SDS011;15886;49.170;14.572;2024-03-22T04:52:26;27.30;;;12.30;;
28714;SDS011;15886;49.170;14.572;2024-03-22T04:54:55;26.02;;;12.30;;
28714;SDS011;15886;49.170;14.572;2024-03-22T04:57:23;22.10;;;11.95;;
28714;SDS011;15886;49.170;14.572;2024-03-22T04:59:53;22.15;;;11.13;;
28714;SDS011;15886;49.170;14.572;2024-03-22T05:02:20;23.80;;;12.45;;
28714;SDS011;15886;49.170;14.572;2024-03-22T05:04:48;21.23;;;11.60;;
28714;SDS011;15886;49.170;14.572;2024-03-22T05:07:17;24.33;;;11.63;;
28714;SDS011;15886;49.170;14.572;2024-03-22T05:09:44;22.90;;;10.80;;
28714;SDS011;15886;49.170;14.572;2024-03-22T05:12:13;26.52;;;11.70;;
28714;SDS011;15886;49.170;14.572;2024-03-22T05:14:40;24.88;;;13.45;;
28714;SDS011;15886;49.170;14.572;2024-03-22T05:17:09;28.42;;;11.30;;
28714;SDS011;15886;49.170;14.572;2024-03-22T05:19:40;21.10;;;12.10;;
28714;SDS011;15886;49.170;14.572;2024-03-22T05:22:15;24.30;;;12.45;;
28714;SDS011;15886;49.170;14.572;2024-03-22T05:24:42;25.65;;;13.90;;
28714;SDS011;15886;49.170;14.572;2024-03-22T05:27:09;26.73;;;14.57;;
28714;SDS011;15886;49.170;14.572;2024-03-22T05:29:37;35.45;;;14.32;;
28714;SDS011;15886;49.170;14.572;2024-03-22T05:32:04;28.25;;;13.57;;
28714;SDS011;15886;49.170;14.572;2024-03-22T05:34:34;31.55;;;14.27;;
28714;SDS011;15886;49.170;14.572;2024-03-22T05:37:01;31.67;;;13.25;;
28714;SDS011;15886;49.170;14.572;2024-03-22T05:39:28;26.92;;;13.07;;
28714;SDS011;15886;49.170;14.572;2024-03-22T05:41:57;26.85;;;12.80;;
28714;SDS011;15886;49.170;14.572;2024-03-22T05:44:25;27.40;;;13.57;;
28714;SDS011;15886;49.170;14.572;2024-03-22T05:46:52;26.08;;;14.73;;
28714;SDS011;15886;49.170;14.572;2024-03-22T05:49:19;28.08;;;13.65;;
28714;SDS011;15886;49.170;14.572;2024-03-22T05:51:49;23.88;;;14.30;;
28714;SDS011;15886;49.170;14.572;2024-03-22T05:54:17;31.67;;;14.77;;
28714;SDS011;15886;49.170;14.572;2024-03-22T05:56:44;26.55;;;15.25;;
28714;SDS011;15886;49.170;14.572;2024-03-22T05:59:11;28.40;;;13.88;;
28714;SDS011;15886;49.170;14.572;2024-03-22T06:01:44;26.73;;;14.00;;
28714;SDS011;15886;49.170;14.572;2024-03-22T06:04:11;26.85;;;15.10;;
28714;SDS011;15886;49.170;14.572;2024-03-22T06:06:38;27.10;;;14.90;;
28714;SDS011;15886;49.170;14.572;2024-03-22T06:09:05;33.78;;;16.10;;
28714;SDS011;15886;49.170;14.572;2024-03-22T06:11:37;28.95;;;15.80;;
28714;SDS011;15886;49.170;14.572;2024-03-22T06:14:05;28.55;;;15.07;;
28714;SDS011;15886;49.170;14.572;2024-03-22T06:16:32;27.75;;;13.82;;
28714;SDS011;15886;49.170;14.572;2024-03-22T06:18:59;26.52;;;14.13;;
28714;SDS011;15886;49.170;14.572;2024-03-22T06:21:26;29.50;;;14.45;;
28714;SDS011;15886;49.170;14.572;2024-03-22T06:23:53;29.02;;;14.95;;
28714;SDS011;15886;49.170;14.572;2024-03-22T06:26:21;33.83;;;15.30;;
28714;SDS011;15886;49.170;14.572;2024-03-22T06:28:48;27.65;;;14.43;;
28714;SDS011;15886;49.170;14.572;2024-03-22T06:31:15;28.17;;;15.35;;
28714;SDS011;15886;49.170;14.572;2024-03-22T06:33:42;25.65;;;13.38;;
28714;SDS011;15886;49.170;14.572;2024-03-22T06:36:09;29.02;;;13.30;;
28714;SDS011;15886;49.170;14.572;2024-03-22T06:38:36;29.05;;;15.75;;
28714;SDS011;15886;49.170;14.572;2024-03-22T06:41:04;30.42;;;15.70;;
28714;SDS011;15886;49.170;14.572;2024-03-22T06:43:31;28.98;;;15.30;;
28714;SDS011;15886;49.170;14.572;2024-03-22T06:45:58;31.05;;;15.88;;
28714;SDS011;15886;49.170;14.572;2024-03-22T06:48:25;28.67;;;14.52;;
28714;SDS011;15886;49.170;14.572;2024-03-22T06:50:52;30.13;;;16.70;;
28714;SDS011;15886;49.170;14.572;2024-03-22T06:53:19;29.90;;;14.68;;
28714;SDS011;15886;49.170;14.572;2024-03-22T06:55:46;31.70;;;15.93;;
28714;SDS011;15886;49.170;14.572;2024-03-22T06:58:14;29.13;;;14.80;;
28714;SDS011;15886;49.170;14.572;2024-03-22T07:00:41;27.08;;;15.15;;
28714;SDS011;15886;49.170;14.572;2024-03-22T07:03:08;52.83;;;38.33;;
28714;SDS011;15886;49.170;14.572;2024-03-22T07:05:35;34.20;;;17.75;;
28714;SDS011;15886;49.170;14.572;2024-03-22T07:08:03;35.70;;;21.65;;
28714;SDS011;15886;49.170;14.572;2024-03-22T07:10:30;31.17;;;15.35;;
28714;SDS011;15886;49.170;14.572;2024-03-22T07:12:57;28.30;;;13.45;;
28714;SDS011;15886;49.170;14.572;2024-03-22T07:15:24;71.78;;;47.40;;
28714;SDS011;15886;49.170;14.572;2024-03-22T07:17:51;94.03;;;53.88;;
28714;SDS011;15886;49.170;14.572;2024-03-22T07:20:18;131.20;;;75.72;;
28714;SDS011;15886;49.170;14.572;2024-03-22T07:22:45;97.20;;;54.50;;
28714;SDS011;15886;49.170;14.572;2024-03-22T07:25:13;54.03;;;29.48;;
28714;SDS011;15886;49.170;14.572;2024-03-22T07:27:40;36.53;;;16.92;;
28714;SDS011;15886;49.170;14.572;2024-03-22T07:30:09;28.30;;;15.80;;
28714;SDS011;15886;49.170;14.572;2024-03-22T07:32:36;26.02;;;14.23;;
28714;SDS011;15886;49.170;14.572;2024-03-22T07:35:03;40.55;;;20.08;;
28714;SDS011;15886;49.170;14.572;2024-03-22T07:37:30;32.55;;;17.05;;
28714;SDS011;15886;49.170;14.572;2024-03-22T07:39:58;32.28;;;14.73;;
28714;SDS011;15886;49.170;14.572;2024-03-22T07:42:25;26.02;;;14.80;;
28714;SDS011;15886;49.170;14.572;2024-03-22T07:44:52;26.38;;;13.35;;
28714;SDS011;15886;49.170;14.572;2024-03-22T07:47:19;25.75;;;11.77;;
28714;SDS011;15886;49.170;14.572;2024-03-22T07:49:46;22.88;;;10.52;;
28714;SDS011;15886;49.170;14.572;2024-03-22T07:52:13;18.05;;;9.50;;
28714;SDS011;15886;49.170;14.572;2024-03-22T07:54:40;21.02;;;11.25;;
28714;SDS011;15886;49.170;14.572;2024-03-22T07:57:07;28.00;;;11.35;;
28714;SDS011;15886;49.170;14.572;2024-03-22T07:59:36;15.88;;;7.40;;
28714;SDS011;15886;49.170;14.572;2024-03-22T08:02:03;13.02;;;5.90;;
28714;SDS011;15886;49.170;14.572;2024-03-22T08:04:30;13.15;;;7.07;;
28714;SDS011;15886;49.170;14.572;2024-03-22T08:06:57;13.25;;;6.53;;
28714;SDS011;15886;49.170;14.572;2024-03-22T08:09:24;10.55;;;6.07;;
28714;SDS011;15886;49.170;14.572;2024-03-22T08:11:52;13.57;;;6.82;;
28714;SDS011;15886;49.170;14.572;2024-03-22T08:14:19;16.38;;;7.20;;
28714;SDS011;15886;49.170;14.572;2024-03-22T08:16:46;13.88;;;7.03;;
28714;SDS011;15886;49.170;14.572;2024-03-22T08:19:13;12.77;;;6.72;;
28714;SDS011;15886;49.170;14.572;2024-03-22T08:21:40;11.98;;;6.20;;
28714;SDS011;15886;49.170;14.572;2024-03-22T08:24:07;11.95;;;6.80;;
28714;SDS011;15886;49.170;14.572;2024-03-22T08:26:34;13.00;;;6.18;;
28714;SDS011;15886;49.170;14.572;2024-03-22T08:29:01;14.38;;;7.13;;
28714;SDS011;15886;49.170;14.572;2024-03-22T08:31:28;17.90;;;7.30;;
28714;SDS011;15886;49.170;14.572;2024-03-22T08:33:55;12.45;;;6.55;;
28714;SDS011;15886;49.170;14.572;2024-03-22T08:36:22;13.52;;;7.00;;
28714;SDS011;15886;49.170;14.572;2024-03-22T08:38:50;13.40;;;6.00;;
28714;SDS011;15886;49.170;14.572;2024-03-22T08:41:17;11.50;;;6.72;;
28714;SDS011;15886;49.170;14.572;2024-03-22T08:43:44;15.73;;;7.60;;
28714;SDS011;15886;49.170;14.572;2024-03-22T08:46:12;12.88;;;7.00;;
28714;SDS011;15886;49.170;14.572;2024-03-22T08:48:39;14.95;;;7.90;;
28714;SDS011;15886;49.170;14.572;2024-03-22T08:51:07;16.92;;;8.88;;
28714;SDS011;15886;49.170;14.572;2024-03-22T08:53:34;19.65;;;8.02;;
28714;SDS011;15886;49.170;14.572;2024-03-22T08:56:01;15.35;;;8.05;;
28714;SDS011;15886;49.170;14.572;2024-03-22T08:58:29;18.77;;;7.68;;
28714;SDS011;15886;49.170;14.572;2024-03-22T09:00:56;15.63;;;7.65;;
28714;SDS011;15886;49.170;14.572;2024-03-22T09:03:24;16.92;;;8.27;;
28714;SDS011;15886;49.170;14.572;2024-03-22T09:05:54;18.30;;;8.00;;
28714;SDS011;15886;49.170;14.572;2024-03-22T09:08:21;16.88;;;7.82;;
28714;SDS011;15886;49.170;14.572;2024-03-22T09:10:48;19.50;;;7.32;;
28714;SDS011;15886;49.170;14.572;2024-03-22T09:13:15;16.70;;;7.78;;
28714;SDS011;15886;49.170;14.572;2024-03-22T09:15:42;15.15;;;7.07;;
28714;SDS011;15886;49.170;14.572;2024-03-22T09:18:09;13.15;;;7.28;;
28714;SDS011;15886;49.170;14.572;2024-03-22T09:20:36;15.40;;;7.75;;
28714;SDS011;15886;49.170;14.572;2024-03-22T09:23:03;16.48;;;8.27;;
28714;SDS011;15886;49.170;14.572;2024-03-22T09:25:31;15.70;;;7.80;;
28714;SDS011;15886;49.170;14.572;2024-03-22T09:27:58;16.48;;;7.95;;
28714;SDS011;15886;49.170;14.572;2024-03-22T09:30:25;12.45;;;7.25;;
28714;SDS011;15886;49.170;14.572;2024-03-22T09:32:52;17.45;;;8.07;;
28714;SDS011;15886;49.170;14.572;2024-03-22T09:35:19;14.65;;;7.85;;
28714;SDS011;15886;49.170;14.572;2024-03-22T09:37:47;18.05;;;7.63;;
28714;SDS011;15886;49.170;14.572;2024-03-22T09:40:14;16.13;;;7.55;;
28714;SDS011;15886;49.170;14.572;2024-03-22T09:42:42;12.38;;;6.45;;
28714;SDS011;15886;49.170;14.572;2024-03-22T09:45:09;15.73;;;7.35;;
28714;SDS011;15886;49.170;14.572;2024-03-22T09:47:37;17.98;;;8.98;;
28714;SDS011;15886;49.170;14.572;2024-03-22T09:50:08;14.48;;;8.00;;
28714;SDS011;15886;49.170;14.572;2024-03-22T09:52:35;15.27;;;8.27;;
28714;SDS011;15886;49.170;14.572;2024-03-22T09:55:07;16.15;;;7.82;;
28714;SDS011;15886;49.170;14.572;2024-03-22T09:57:38;17.58;;;7.22;;
28714;SDS011;15886;49.170;14.572;2024-03-22T10:00:06;17.48;;;6.95;;
28714;SDS011;15886;49.170;14.572;2024-03-22T10:02:40;12.95;;;8.00;;
28714;SDS011;15886;49.170;14.572;2024-03-22T10:05:10;13.75;;;7.40;;
28714;SDS011;15886;49.170;14.572;2024-03-22T10:07:37;13.35;;;6.45;;
28714;SDS011;15886;49.170;14.572;2024-03-22T10:10:04;10.40;;;6.05;;
28714;SDS011;15886;49.170;14.572;2024-03-22T10:12:31;16.63;;;6.65;;
28714;SDS011;15886;49.170;14.572;2024-03-22T10:14:59;14.85;;;7.32;;
28714;SDS011;15886;49.170;14.572;2024-03-22T10:17:26;14.45;;;6.10;;
28714;SDS011;15886;49.170;14.572;2024-03-22T10:19:54;12.25;;;5.93;;
28714;SDS011;15886;49.170;14.572;2024-03-22T10:22:21;10.10;;;5.50;;
28714;SDS011;15886;49.170;14.572;2024-03-22T10:24:50;8.23;;;5.15;;
28714;SDS011;15886;49.170;14.572;2024-03-22T10:27:19;11.13;;;5.65;;
28714;SDS011;15886;49.170;14.572;2024-03-22T10:29:46;13.55;;;6.18;;
28714;SDS011;15886;49.170;14.572;2024-03-22T10:32:14;8.85;;;5.00;;
28714;SDS011;15886;49.170;14.572;2024-03-22T10:34:43;8.15;;;5.35;;
28714;SDS011;15886;49.170;14.572;2024-03-22T10:37:12;12.23;;;5.43;;
28714;SDS011;15886;49.170;14.572;2024-03-22T10:39:41;8.73;;;4.78;;
28714;SDS011;15886;49.170;14.572;2024-03-22T10:42:11;9.90;;;5.32;;
28714;SDS011;15886;49.170;14.572;2024-03-22T10:44:40;9.70;;;5.38;;
28714;SDS011;15886;49.170;14.572;2024-03-22T10:47:07;10.70;;;5.82;;
28714;SDS011;15886;49.170;14.572;2024-03-22T10:49:37;7.28;;;4.30;;
28714;SDS011;15886;49.170;14.572;2024-03-22T10:52:04;10.02;;;4.18;;
28714;SDS011;15886;49.170;14.572;2024-03-22T10:54:37;11.10;;;4.05;;
28714;SDS011;15886;49.170;14.572;2024-03-22T10:57:06;7.05;;;4.07;;
28714;SDS011;15886;49.170;14.572;2024-03-22T10:59:35;5.68;;;2.97;;
28714;SDS011;15886;49.170;14.572;2024-03-22T11:02:03;11.38;;;4.50;;
28714;SDS011;15886;49.170;14.572;2024-03-22T11:04:33;7.63;;;4.43;;
28714;SDS011;15886;49.170;14.572;2024-03-22T11:07:00;7.60;;;3.70;;
28714;SDS011;15886;49.170;14.572;2024-03-22T11:09:29;8.90;;;4.32;;
28714;SDS011;15886;49.170;14.572;2024-03-22T11:11:57;8.55;;;4.15;;
28714;SDS011;15886;49.170;14.572;2024-03-22T11:14:25;8.48;;;4.25;;
28714;SDS011;15886;49.170;14.572;2024-03-22T11:16:52;9.65;;;4.90;;
28714;SDS011;15886;49.170;14.572;2024-03-22T11:19:19;11.43;;;4.70;;
28714;SDS011;15886;49.170;14.572;2024-03-22T11:21:46;8.43;;;4.60;;
28714;SDS011;15886;49.170;14.572;2024-03-22T11:24:13;7.57;;;4.38;;
28714;SDS011;15886;49.170;14.572;2024-03-22T11:26:41;9.18;;;4.45;;
28714;SDS011;15886;49.170;14.572;2024-03-22T11:29:10;6.63;;;4.07;;
28714;SDS011;15886;49.170;14.572;2024-03-22T11:31:37;11.27;;;5.07;;
28714;SDS011;15886;49.170;14.572;2024-03-22T11:34:05;8.52;;;3.60;;
28714;SDS011;15886;49.170;14.572;2024-03-22T11:36:32;7.60;;;3.90;;
28714;SDS011;15886;49.170;14.572;2024-03-22T11:39:00;10.50;;;4.10;;
28714;SDS011;15886;49.170;14.572;2024-03-22T11:41:28;8.50;;;3.30;;
28714;SDS011;15886;49.170;14.572;2024-03-22T11:43:55;5.28;;;2.90;;
28714;SDS011;15886;49.170;14.572;2024-03-22T11:46:24;8.20;;;3.60;;
28714;SDS011;15886;49.170;14.572;2024-03-22T11:48:58;7.90;;;3.83;;
28714;SDS011;15886;49.170;14.572;2024-03-22T11:51:25;11.07;;;4.07;;
28714;SDS011;15886;49.170;14.572;2024-03-22T11:53:53;9.13;;;4.43;;
28714;SDS011;15886;49.170;14.572;2024-03-22T11:56:22;8.60;;;3.67;;
28714;SDS011;15886;49.170;14.572;2024-03-22T11:58:49;8.30;;;3.90;;
28714;SDS011;15886;49.170;14.572;2024-03-22T12:01:24;8.90;;;4.70;;
28714;SDS011;15886;49.170;14.572;2024-03-22T12:03:51;8.82;;;3.80;;
28714;SDS011;15886;49.170;14.572;2024-03-22T12:06:18;4.80;;;3.00;;
28714;SDS011;15886;49.170;14.572;2024-03-22T12:08:47;7.38;;;2.83;;
28714;SDS011;15886;49.170;14.572;2024-03-22T12:11:14;6.65;;;3.03;;
28714;SDS011;15886;49.170;14.572;2024-03-22T12:13:42;6.03;;;3.45;;
28714;SDS011;15886;49.170;14.572;2024-03-22T12:16:09;6.65;;;3.35;;
28714;SDS011;15886;49.170;14.572;2024-03-22T12:18:38;4.75;;;3.03;;
28714;SDS011;15886;49.170;14.572;2024-03-22T12:21:05;8.10;;;3.63;;
28714;SDS011;15886;49.170;14.572;2024-03-22T12:23:32;9.65;;;3.60;;
28714;SDS011;15886;49.170;14.572;2024-03-22T12:26:01;6.40;;;3.25;;
28714;SDS011;15886;49.170;14.572;2024-03-22T12:28:28;6.65;;;3.17;;
28714;SDS011;15886;49.170;14.572;2024-03-22T12:30:55;7.13;;;2.88;;
28714;SDS011;15886;49.170;14.572;2024-03-22T12:33:22;5.30;;;3.28;;
28714;SDS011;15886;49.170;14.572;2024-03-22T12:35:49;5.10;;;2.55;;
28714;SDS011;15886;49.170;14.572;2024-03-22T12:38:16;6.22;;;2.88;;
28714;SDS011;15886;49.170;14.572;2024-03-22T12:40:44;6.55;;;3.67;;
28714;SDS011;15886;49.170;14.572;2024-03-22T12:43:11;7.80;;;4.10;;
28714;SDS011;15886;49.170;14.572;2024-03-22T12:45:38;8.25;;;3.08;;
28714;SDS011;15886;49.170;14.572;2024-03-22T12:48:05;7.32;;;3.20;;
28714;SDS011;15886;49.170;14.572;2024-03-22T12:50:32;7.05;;;3.65;;
28714;SDS011;15886;49.170;14.572;2024-03-22T12:52:59;7.35;;;3.97;;
28714;SDS011;15886;49.170;14.572;2024-03-22T12:55:27;4.78;;;2.88;;
28714;SDS011;15886;49.170;14.572;2024-03-22T12:57:57;6.25;;;2.97;;
28714;SDS011;15886;49.170;14.572;2024-03-22T13:00:24;9.02;;;3.33;;
28714;SDS011;15886;49.170;14.572;2024-03-22T13:02:51;8.48;;;3.15;;
28714;SDS011;15886;49.170;14.572;2024-03-22T13:05:18;4.85;;;2.78;;
28714;SDS011;15886;49.170;14.572;2024-03-22T13:07:45;4.95;;;3.28;;
28714;SDS011;15886;49.170;14.572;2024-03-22T13:10:13;4.75;;;3.10;;
28714;SDS011;15886;49.170;14.572;2024-03-22T13:12:40;3.75;;;2.65;;
28714;SDS011;15886;49.170;14.572;2024-03-22T13:15:07;5.90;;;3.25;;
28714;SDS011;15886;49.170;14.572;2024-03-22T13:17:35;7.82;;;3.55;;
28714;SDS011;15886;49.170;14.572;2024-03-22T13:20:03;6.28;;;3.20;;
28714;SDS011;15886;49.170;14.572;2024-03-22T13:22:39;10.40;;;3.30;;
28714;SDS011;15886;49.170;14.572;2024-03-22T13:25:06;5.18;;;2.83;;
28714;SDS011;15886;49.170;14.572;2024-03-22T13:27:35;6.82;;;3.45;;
28714;SDS011;15886;49.170;14.572;2024-03-22T13:30:06;7.28;;;3.42;;
28714;SDS011;15886;49.170;14.572;2024-03-22T13:32:36;7.10;;;3.38;;
28714;SDS011;15886;49.170;14.572;2024-03-22T13:35:04;6.75;;;3.22;;
28714;SDS011;15886;49.170;14.572;2024-03-22T13:37:31;7.45;;;3.22;;
28714;SDS011;15886;49.170;14.572;2024-03-22T13:39:58;5.13;;;2.95;;
28714;SDS011;15886;49.170;14.572;2024-03-22T13:42:27;5.60;;;3.17;;
28714;SDS011;15886;49.170;14.572;2024-03-22T13:44:55;6.80;;;3.22;;
28714;SDS011;15886;49.170;14.572;2024-03-22T13:47:26;9.48;;;3.03;;
28714;SDS011;15886;49.170;14.572;2024-03-22T13:49:56;4.20;;;2.78;;
28714;SDS011;15886;49.170;14.572;2024-03-22T13:52:23;3.92;;;2.63;;
28714;SDS011;15886;49.170;14.572;2024-03-22T13:54:55;4.60;;;2.85;;
28714;SDS011;15886;49.170;14.572;2024-03-22T13:57:27;4.18;;;2.70;;
28714;SDS011;15886;49.170;14.572;2024-03-22T13:59:54;3.75;;;2.33;;
28714;SDS011;15886;49.170;14.572;2024-03-22T14:02:21;4.93;;;2.80;;
28714;SDS011;15886;49.170;14.572;2024-03-22T14:04:49;4.30;;;2.78;;
28714;SDS011;15886;49.170;14.572;2024-03-22T14:07:16;5.43;;;2.78;;
28714;SDS011;15886;49.170;14.572;2024-03-22T14:09:44;6.60;;;2.95;;
28714;SDS011;15886;49.170;14.572;2024-03-22T14:12:11;5.03;;;2.58;;
28714;SDS011;15886;49.170;14.572;2024-03-22T14:14:38;5.22;;;2.67;;
28714;SDS011;15886;49.170;14.572;2024-03-22T14:17:06;3.65;;;1.80;;
28714;SDS011;15886;49.170;14.572;2024-03-22T14:19:33;6.18;;;2.78;;
28714;SDS011;15886;49.170;14.572;2024-03-22T14:22:00;7.68;;;2.78;;